createdAt,value
2019-04-23T00:01:46.338Z,96606.78
2019-04-23T00:04:11.060Z,96600.20
2019-04-23T00:06:47.594Z,96595.80
2019-04-23T00:09:20.381Z,96600.64
2019-04-23T00:11:54.267Z,96595.38
2019-04-23T00:14:32.102Z,96580.27
2019-04-23T00:16:59.215Z,96581.94
2019-04-23T00:19:36.089Z,96573.38
2019-04-23T00:22:39.833Z,96571.33
2019-04-23T00:28:14.168Z,96569.08
2019-04-23T00:33:18.870Z,96577.20
2019-04-23T00:35:48.649Z,96570.97
2019-04-23T00:40:51.427Z,96573.95
2019-04-23T00:43:28.905Z,96567.89
2019-04-23T00:45:59.717Z,96563.75
2019-04-23T00:48:34.968Z,96565.28
2019-04-23T00:51:01.983Z,96561.33
2019-04-23T00:53:38.642Z,96556.86
2019-04-23T00:56:32.096Z,96560.20
2019-04-23T00:58:47.996Z,96553.93
2019-04-23T01:01:31.862Z,96545.38
2019-04-23T01:03:53.065Z,96545.25
2019-04-23T01:06:24.190Z,96543.80
2019-04-23T01:09:02.133Z,96534.31
2019-04-23T01:11:34.230Z,96543.18
2019-04-23T01:14:08.181Z,96541.39
2019-04-23T01:16:39.323Z,96535.78
2019-04-23T01:19:31.696Z,96538.59
2019-04-23T01:21:41.153Z,96526.47
2019-04-23T01:24:32.467Z,96528.50
2019-04-23T01:27:39.763Z,96526.91
2019-04-23T01:30:08.399Z,96532.16
2019-04-23T01:32:39.232Z,96540.00
2019-04-23T01:35:17.876Z,96543.42
2019-04-23T01:37:45.129Z,96548.05
2019-04-23T01:40:18.750Z,96547.54
2019-04-23T01:42:44.225Z,96549.70
2019-04-23T01:47:54.755Z,96545.32
2019-04-23T01:50:27.977Z,96532.52
2019-04-23T01:53:12.274Z,96531.89
2019-04-23T01:58:30.193Z,96526.37
2019-04-23T02:00:41.045Z,96520.31
2019-04-23T02:03:15.137Z,96524.37
2019-04-23T02:05:51.310Z,96512.03
2019-04-23T02:08:19.320Z,96515.82
2019-04-23T02:13:38.755Z,96505.94
2019-04-23T02:15:57.133Z,96508.72
2019-04-23T02:18:38.819Z,96502.83
2019-04-23T02:21:10.233Z,96498.22
2019-04-23T02:23:53.712Z,96503.17
2019-04-23T02:26:46.472Z,96509.75
2019-04-23T02:29:14.545Z,96503.70
2019-04-23T02:31:50.100Z,96505.86
2019-04-23T02:34:42.339Z,96504.72
2019-04-23T02:44:24.131Z,96508.88
2019-04-23T02:47:08.367Z,96505.89
2019-04-23T02:49:44.288Z,96516.74
2019-04-23T02:55:03.785Z,96503.19
2019-04-23T02:57:24.758Z,96510.22
2019-04-23T03:00:07.820Z,96509.42
2019-04-23T03:02:35.105Z,96512.72
2019-04-23T03:05:11.206Z,96501.58
2019-04-23T03:15:29.818Z,96495.95
2019-04-23T03:23:41.883Z,96491.72
2019-04-23T03:28:56.865Z,96487.65
2019-04-23T03:34:38.373Z,96482.56
2019-04-23T03:36:38.597Z,96486.38
2019-04-23T03:38:51.801Z,96482.77
2019-04-23T03:41:50.236Z,96478.03
2019-04-23T03:43:51.488Z,96483.78
2019-04-23T03:49:05.582Z,96475.64
2019-04-23T03:51:51.245Z,96475.13
2019-04-23T04:02:10.601Z,96469.25
2019-04-23T04:07:09.847Z,96468.12
2019-04-23T04:12:21.412Z,96456.83
2019-04-23T04:17:19.744Z,96452.08
2019-04-23T04:20:02.370Z,96449.63
2019-04-23T04:25:01.611Z,96447.02
2019-04-23T04:32:54.469Z,96440.61
2019-04-23T04:47:54.114Z,96430.78
2019-04-23T04:50:32.822Z,96427.52
2019-04-23T04:53:12.495Z,96435.69
2019-04-23T04:58:32.441Z,96438.48
2019-04-23T05:01:01.365Z,96442.09
2019-04-23T05:08:38.327Z,96431.79
2019-04-23T05:11:13.525Z,96428.66
2019-04-23T05:18:49.548Z,96422.59
2019-04-23T05:21:20.458Z,96427.67
2019-04-23T05:26:25.055Z,96430.77
2019-04-23T05:29:00.110Z,96431.58
2019-04-23T05:31:27.887Z,96425.52
2019-04-23T05:34:03.046Z,96424.71
2019-04-23T05:36:44.142Z,96419.13
2019-04-23T05:39:17.597Z,96428.11
2019-04-23T05:41:41.247Z,96436.79
2019-04-23T05:44:21.237Z,96424.31
2019-04-23T05:46:52.190Z,96420.84
2019-04-23T05:49:27.925Z,96421.78
2019-04-23T05:52:00.335Z,96420.64
2019-04-23T05:54:41.545Z,96425.50
2019-04-23T05:57:09.895Z,96423.12
2019-04-23T05:59:37.279Z,96422.27
2019-04-23T06:02:26.193Z,96423.52
2019-04-23T06:04:42.678Z,96423.48
2019-04-23T06:09:53.167Z,96424.53
2019-04-23T06:12:21.469Z,96415.62
2019-04-23T06:14:57.490Z,96413.97
2019-04-23T06:17:30.921Z,96415.11
2019-04-23T06:25:27.477Z,96418.66
2019-04-23T06:27:52.758Z,96419.20
2019-04-23T06:30:42.209Z,96420.52
2019-04-23T06:32:51.327Z,96414.73
2019-04-23T06:35:47.002Z,96417.91
2019-04-23T06:38:35.717Z,96419.13
2019-04-23T06:40:38.890Z,96427.41
2019-04-23T06:43:25.670Z,96422.94
2019-04-23T06:45:49.491Z,96415.77
2019-04-23T06:48:28.732Z,96413.97
2019-04-23T06:51:07.846Z,96415.46
2019-04-23T06:53:29.117Z,96414.59
2019-04-23T06:56:14.308Z,96410.77
2019-04-23T07:01:09.686Z,96411.45
2019-04-23T07:03:50.647Z,96410.00
2019-04-23T07:09:10.546Z,96411.47
2019-04-23T07:11:40.258Z,96408.00
2019-04-23T07:16:35.776Z,96407.73
2019-04-23T07:19:14.949Z,96405.07
2019-04-23T07:21:33.592Z,96394.42
2019-04-23T07:31:59.307Z,96403.20
2019-04-23T07:34:23.193Z,96392.86
2019-04-23T07:36:58.825Z,96401.39
2019-04-23T07:40:21.468Z,96403.39
2019-04-23T07:43:00.223Z,96394.17
2019-04-23T07:45:45.419Z,96391.17
2019-04-23T07:48:31.488Z,96400.72
2019-04-23T07:50:53.530Z,96399.64
2019-04-23T07:53:46.688Z,96396.66
2019-04-23T07:56:02.516Z,96400.42
2019-04-23T07:58:44.666Z,96392.44
2019-04-23T08:01:08.312Z,96392.94
2019-04-23T08:03:43.655Z,96406.81
2019-04-23T08:06:15.366Z,96391.95
2019-04-23T08:08:52.672Z,96388.92
2019-04-23T08:13:59.082Z,96389.09
2019-04-23T08:18:57.760Z,96387.83
2019-04-23T08:21:37.548Z,96380.23
2019-04-23T08:24:33.647Z,96382.42
2019-04-23T08:27:07.540Z,96374.61
2019-04-23T08:29:36.376Z,96379.36
2019-04-23T08:32:15.010Z,96382.14
2019-04-23T08:34:58.774Z,96375.45
2019-04-23T08:37:26.576Z,96375.16
2019-04-23T08:39:57.112Z,96373.66
2019-04-23T08:42:36.378Z,96371.84
2019-04-23T08:45:32.912Z,96368.69
2019-04-23T08:48:41.678Z,96368.37
2019-04-23T08:51:05.551Z,96369.61
2019-04-23T08:56:02.019Z,96369.55
2019-04-23T08:58:34.028Z,96369.42
2019-04-23T09:01:13.696Z,96371.66
2019-04-23T09:03:42.782Z,96366.58
2019-04-23T09:06:20.239Z,96368.50
2019-04-23T09:08:49.993Z,96369.12
2019-04-23T09:14:07.141Z,96370.55
2019-04-23T09:16:36.205Z,96371.20
2019-04-23T09:21:40.179Z,96367.43
2019-04-23T09:24:11.782Z,96369.09
2019-04-23T09:26:51.666Z,96368.86
2019-04-23T09:29:30.305Z,96364.77
2019-04-23T09:32:21.815Z,96363.06
2019-04-23T09:35:12.940Z,96366.64
2019-04-23T09:37:59.621Z,96364.63
2019-04-23T09:41:05.913Z,96370.67
2019-04-23T09:43:31.248Z,96372.57
2019-04-23T09:49:09.320Z,96375.09
2019-04-23T09:51:39.653Z,96375.28
2019-04-23T09:54:12.144Z,96378.53
2019-04-23T09:56:41.003Z,96380.55
2019-04-23T09:59:26.441Z,96378.64
2019-04-23T10:01:40.943Z,96376.31
2019-04-23T10:04:08.684Z,96380.02
2019-04-23T10:06:32.530Z,96372.97
2019-04-23T10:09:06.105Z,96374.86
2019-04-23T10:11:37.450Z,96367.91
2019-04-23T10:14:10.609Z,96369.73
2019-04-23T10:16:43.382Z,96364.54
2019-04-23T10:19:15.640Z,96367.08
2019-04-23T10:21:49.206Z,96365.77
2019-04-23T10:24:21.084Z,96364.95
2019-04-23T10:26:52.676Z,96362.92
2019-04-23T10:29:28.071Z,96357.55
2019-04-23T10:31:59.834Z,96354.22
2019-04-23T10:34:44.103Z,96352.23
2019-04-23T10:37:05.308Z,96358.36
2019-04-23T10:39:42.734Z,96346.55
2019-04-23T10:42:12.190Z,96353.23
2019-04-23T10:44:54.406Z,96342.78
2019-04-23T10:51:04.358Z,96346.26
2019-04-23T10:53:37.846Z,96342.61
2019-04-23T10:56:22.641Z,96346.64
2019-04-23T10:58:38.342Z,96344.21
2019-04-23T11:01:22.714Z,96342.64
2019-04-23T11:04:13.722Z,96345.69
2019-04-23T11:06:30.818Z,96352.71
2019-04-23T11:09:24.729Z,96352.44
2019-04-23T11:11:46.939Z,96346.51
2019-04-23T11:14:23.126Z,96347.61
2019-04-23T11:16:57.217Z,96344.58
2019-04-23T11:19:33.964Z,96351.16
2019-04-23T11:22:06.282Z,96351.06
2019-04-23T11:27:07.868Z,96354.66
2019-04-23T11:32:31.738Z,96351.30
2019-04-23T11:35:06.739Z,96352.50
2019-04-23T11:37:29.965Z,96356.50
2019-04-23T11:39:50.285Z,96354.44
2019-04-23T11:42:29.703Z,96345.47
2019-04-23T11:48:07.416Z,96346.66
2019-04-23T11:55:30.995Z,96350.28
2019-04-23T12:00:31.496Z,96356.07
2019-04-23T12:03:19.370Z,96363.20
2019-04-23T12:06:21.937Z,96356.85
2019-04-23T12:08:56.661Z,96352.94
2019-04-23T12:14:42.059Z,96353.94
2019-04-23T12:17:18.570Z,96348.28
2019-04-23T12:22:26.986Z,96355.84
2019-04-23T12:25:07.658Z,96360.53
2019-04-23T12:27:30.675Z,96351.89
2019-04-23T12:30:03.564Z,96355.33
2019-04-23T12:38:03.274Z,96361.92
2019-04-23T12:40:27.523Z,96354.28
2019-04-23T12:43:02.530Z,96363.45
2019-04-23T12:45:31.702Z,96350.53
2019-04-23T12:48:26.296Z,96354.91
2019-04-23T12:53:10.542Z,96352.92
2019-04-23T12:58:20.396Z,96337.34
2019-04-23T13:00:48.084Z,96337.10
2019-04-23T13:03:26.110Z,96334.86
2019-04-23T13:05:51.328Z,96341.42
2019-04-23T13:11:21.559Z,96328.13
2019-04-23T13:13:48.754Z,96331.98
2019-04-23T13:18:46.581Z,96326.56
2019-04-23T13:21:39.946Z,96331.55
2019-04-23T13:24:11.388Z,96326.66
2019-04-23T13:26:46.551Z,96321.80
2019-04-23T13:29:32.425Z,96318.09
2019-04-23T13:31:50.182Z,96314.34
2019-04-23T13:34:31.621Z,96322.00
2019-04-23T13:36:59.737Z,96313.98
2019-04-23T13:39:42.243Z,96316.20
2019-04-23T13:42:15.985Z,96309.59
2019-04-23T13:44:47.001Z,96306.30
2019-04-23T13:47:29.866Z,96311.83
2019-04-23T13:52:48.771Z,96302.95
2019-04-23T13:55:04.571Z,96299.55
2019-04-23T14:00:06.730Z,96305.09
2019-04-23T14:02:52.512Z,96303.92
2019-04-23T14:05:41.299Z,96307.03
2019-04-23T14:10:40.041Z,96303.95
2019-04-23T14:13:33.303Z,96310.27
2019-04-23T14:15:59.012Z,96305.28
2019-04-23T14:20:59.007Z,96296.94
2019-04-23T14:23:39.570Z,96297.17
2019-04-23T14:26:15.844Z,96303.14
2019-04-23T14:28:41.863Z,96298.46
2019-04-23T14:36:19.476Z,96299.34
2019-04-23T14:38:52.738Z,96292.50
2019-04-23T14:41:23.408Z,96299.75
2019-04-23T14:49:06.530Z,96299.75
2019-04-23T14:54:15.700Z,96297.17
2019-04-23T14:56:44.964Z,96292.01
2019-04-23T14:59:19.460Z,96288.19
2019-04-23T15:01:54.885Z,96293.99
2019-04-23T15:04:28.738Z,96286.76
2019-04-23T15:12:16.011Z,96282.81
2019-04-23T15:14:52.454Z,96280.58
2019-04-23T15:17:20.280Z,96283.38
2019-04-23T15:20:20.269Z,96275.43
2019-04-23T15:23:09.240Z,96274.66
2019-04-23T15:30:21.737Z,96278.62
2019-04-23T15:35:55.746Z,96278.56
2019-04-23T15:40:43.778Z,96274.00
2019-04-23T15:43:16.661Z,96275.98
2019-04-23T15:45:52.100Z,96279.65
2019-04-23T15:48:26.040Z,96274.81
2019-04-23T15:51:10.077Z,96268.99
2019-04-23T15:53:26.643Z,96277.12
2019-04-23T15:56:11.735Z,96272.20
2019-04-23T15:58:46.524Z,96278.83
2019-04-23T16:03:27.508Z,96273.87
2019-04-23T16:05:59.259Z,96275.86
2019-04-23T16:09:05.490Z,96271.30
2019-04-23T16:11:39.495Z,96274.99
2019-04-23T16:16:45.323Z,96269.38
2019-04-23T16:19:24.434Z,96268.14
2019-04-23T16:22:07.276Z,96273.20
2019-04-23T16:24:26.697Z,96268.50
2019-04-23T16:27:07.978Z,96267.70
2019-04-23T16:32:20.500Z,96275.92
2019-04-23T16:34:51.894Z,96276.41
2019-04-23T16:37:22.796Z,96275.69
2019-04-23T16:40:03.936Z,96273.02
2019-04-23T16:42:29.323Z,96272.38
2019-04-23T16:47:38.657Z,96280.00
2019-04-23T16:50:13.026Z,96273.83
2019-04-23T16:52:42.521Z,96273.91
2019-04-23T16:55:16.661Z,96277.00
2019-04-23T16:58:08.433Z,96279.25
2019-04-23T17:00:33.590Z,96269.02
2019-04-23T17:03:06.806Z,96269.62
2019-04-23T17:08:33.778Z,96274.15
2019-04-23T17:10:48.735Z,96271.94
2019-04-23T17:13:17.534Z,96271.94
2019-04-23T17:18:24.494Z,96277.38
2019-04-23T17:20:56.021Z,96276.77
2019-04-23T17:23:39.250Z,96274.56
2019-04-23T17:26:02.718Z,96280.11
2019-04-23T17:28:58.275Z,96280.06
2019-04-23T17:31:26.242Z,96281.20
2019-04-23T17:36:24.013Z,96279.02
2019-04-23T17:39:05.387Z,96281.73
2019-04-23T17:41:50.058Z,96286.66
2019-04-23T17:46:54.280Z,96283.10
2019-04-23T17:49:23.357Z,96282.49
2019-04-23T17:51:56.052Z,96296.02
2019-04-23T17:54:48.086Z,96291.55
2019-04-23T18:00:08.310Z,96302.84
2019-04-23T18:05:02.366Z,96289.33
2019-04-23T18:10:17.970Z,96300.33
2019-04-23T18:15:10.627Z,96297.08
2019-04-23T18:17:52.805Z,96303.17
2019-04-23T18:20:50.466Z,96309.08
2019-04-23T18:23:19.661Z,96303.74
2019-04-23T18:25:58.055Z,96307.39
2019-04-23T18:28:29.587Z,96306.02
2019-04-23T18:34:15.884Z,96310.33
2019-04-23T18:36:46.610Z,96316.89
2019-04-23T18:39:26.294Z,96312.97
2019-04-23T18:41:59.982Z,96308.72
2019-04-23T18:44:34.279Z,96313.03
2019-04-23T18:47:00.420Z,96307.67
2019-04-23T18:52:20.867Z,96315.09
2019-04-23T18:54:41.875Z,96315.77
2019-04-23T18:59:50.965Z,96316.92
2019-04-23T19:10:57.780Z,96326.13
2019-04-23T19:13:32.845Z,96335.84
2019-04-23T19:16:13.129Z,96333.58
2019-04-23T19:18:40.357Z,96335.24
2019-04-23T19:26:45.845Z,96347.52
2019-04-23T19:28:56.052Z,96339.98
2019-04-23T19:34:42.302Z,96352.02
2019-04-23T19:37:02.567Z,96353.44
2019-04-23T19:44:49.405Z,96359.25
2019-04-23T19:47:29.326Z,96360.46
2019-04-23T19:49:53.322Z,96358.02
2019-04-23T19:52:52.200Z,96358.74
2019-04-23T19:55:00.019Z,96363.49
2019-04-23T19:57:42.499Z,96365.22
2019-04-23T20:00:13.835Z,96363.30
2019-04-23T20:03:05.999Z,96368.80
2019-04-23T20:05:21.675Z,96364.11
2019-04-23T20:08:02.608Z,96364.41
2019-04-23T20:10:30.436Z,96364.29
2019-04-23T20:12:51.797Z,96360.72
2019-04-23T20:15:41.120Z,96366.73
2019-04-23T20:17:59.535Z,96365.81
2019-04-23T20:20:49.796Z,96371.26
2019-04-23T20:23:30.698Z,96364.64
2019-04-23T20:26:12.109Z,96371.73
2019-04-23T20:32:48.883Z,96374.16
2019-04-23T20:34:11.479Z,96379.23
2019-04-23T20:36:48.203Z,96377.36
2019-04-23T20:39:16.361Z,96382.63
2019-04-23T20:42:10.722Z,96380.58
2019-04-23T20:44:39.461Z,96385.73
2019-04-23T20:49:42.849Z,96377.47
2019-04-23T20:52:07.025Z,96377.05
2019-04-23T20:57:45.622Z,96390.52
2019-04-23T21:00:36.835Z,96390.31
2019-04-23T21:03:18.141Z,96394.06
2019-04-23T21:05:22.880Z,96392.73
2019-04-23T21:10:38.583Z,96405.08
2019-04-23T21:13:15.697Z,96402.11
2019-04-23T21:18:22.422Z,96406.72
2019-04-23T21:21:13.292Z,96399.38
2019-04-23T21:23:25.046Z,96406.08
2019-04-23T21:25:52.578Z,96404.08
2019-04-23T21:28:40.153Z,96406.40
2019-04-23T21:33:59.377Z,96403.88
2019-04-23T21:36:46.408Z,96408.33
2019-04-23T21:42:40.794Z,96414.13
2019-04-23T21:45:04.826Z,96413.61
2019-04-23T21:47:54.910Z,96413.27
2019-04-23T21:50:25.269Z,96416.93
2019-04-23T21:52:54.123Z,96413.30
2019-04-23T21:58:07.305Z,96412.36
2019-04-23T22:00:39.275Z,96416.70
2019-04-23T22:03:11.740Z,96418.54
2019-04-23T22:05:44.477Z,96417.80
2019-04-23T22:08:05.803Z,96425.61
2019-04-23T22:10:58.738Z,96427.73
2019-04-23T22:18:23.957Z,96430.53
2019-04-23T22:21:05.114Z,96427.95
2019-04-23T22:23:44.444Z,96430.81
2019-04-23T22:26:13.260Z,96430.38
2019-04-23T22:28:54.373Z,96427.51
2019-04-23T22:33:56.777Z,96433.73
2019-04-23T22:38:59.540Z,96443.67
2019-04-23T22:41:30.183Z,96438.45
2019-04-23T22:44:05.393Z,96447.73
2019-04-23T22:46:50.199Z,96442.22
2019-04-23T22:49:36.405Z,96442.97
2019-04-23T22:54:18.808Z,96452.08
2019-04-23T22:56:54.222Z,96451.80
2019-04-23T22:59:58.651Z,96456.50
2019-04-23T23:02:25.418Z,96451.16
2019-04-23T23:05:14.297Z,96457.17
2019-04-23T23:07:29.041Z,96453.77
2019-04-23T23:10:06.885Z,96457.36
2019-04-23T23:12:44.966Z,96458.23
2019-04-23T23:17:50.709Z,96462.91
2019-04-23T23:22:58.875Z,96460.56
2019-04-23T23:27:57.755Z,96455.47
2019-04-23T23:30:26.293Z,96455.84
2019-04-23T23:33:03.825Z,96455.84
2019-04-23T23:35:40.570Z,96459.83
2019-04-23T23:38:16.413Z,96460.26
2019-04-23T23:40:47.263Z,96455.20
2019-04-23T23:45:57.499Z,96460.66
2019-04-23T23:48:18.714Z,96461.02
2019-04-23T23:51:00.430Z,96462.76
2019-04-23T23:53:40.043Z,96460.16
